sensor_id;sensor_type;location;lat;lon;timestamp;P1;durP1;ratioP1;P2;durP2;ratioP2
42244;SDS011;27912;51.828;5.688;2022-11-23T00:00:44;10.93;;;4.97;;
42244;SDS011;27912;51.828;5.688;2022-11-23T00:03:13;10.73;;;5.60;;
42244;SDS011;27912;51.828;5.688;2022-11-23T00:05:39;12.57;;;5.40;;
42244;SDS011;27912;51.828;5.688;2022-11-23T00:08:05;13.70;;;5.10;;
42244;SDS011;27912;51.828;5.688;2022-11-23T00:10:31;11.77;;;4.53;;
42244;SDS011;27912;51.828;5.688;2022-11-23T00:12:56;12.38;;;5.28;;
42244;SDS011;27912;51.828;5.688;2022-11-23T00:15:22;16.30;;;5.85;;
42244;SDS011;27912;51.828;5.688;2022-11-23T00:17:48;15.85;;;6.22;;
42244;SDS011;27912;51.828;5.688;2022-11-23T00:20:13;13.05;;;5.25;;
42244;SDS011;27912;51.828;5.688;2022-11-23T00:22:39;12.57;;;5.63;;
42244;SDS011;27912;51.828;5.688;2022-11-23T00:25:05;18.25;;;6.53;;
42244;SDS011;27912;51.828;5.688;2022-11-23T00:27:30;11.40;;;5.63;;
42244;SDS011;27912;51.828;5.688;2022-11-23T00:29:56;12.80;;;5.25;;
42244;SDS011;27912;51.828;5.688;2022-11-23T00:32:22;12.73;;;5.72;;
42244;SDS011;27912;51.828;5.688;2022-11-23T00:34:47;18.45;;;5.82;;
42244;SDS011;27912;51.828;5.688;2022-11-23T00:37:13;18.48;;;6.25;;
42244;SDS011;27912;51.828;5.688;2022-11-23T00:39:39;15.88;;;6.38;;
42244;SDS011;27912;51.828;5.688;2022-11-23T00:42:04;17.77;;;5.65;;
42244;SDS011;27912;51.828;5.688;2022-11-23T00:44:30;17.75;;;6.53;;
42244;SDS011;27912;51.828;5.688;2022-11-23T00:46:56;13.30;;;5.70;;
42244;SDS011;27912;51.828;5.688;2022-11-23T00:49:21;15.15;;;5.95;;
42244;SDS011;27912;51.828;5.688;2022-11-23T00:51:47;16.42;;;5.78;;
42244;SDS011;27912;51.828;5.688;2022-11-23T00:54:13;16.38;;;5.68;;
42244;SDS011;27912;51.828;5.688;2022-11-23T00:56:39;16.58;;;5.22;;
42244;SDS011;27912;51.828;5.688;2022-11-23T00:59:04;13.73;;;4.90;;
42244;SDS011;27912;51.828;5.688;2022-11-23T01:01:31;15.73;;;5.18;;
42244;SDS011;27912;51.828;5.688;2022-11-23T01:03:59;17.90;;;5.72;;
42244;SDS011;27912;51.828;5.688;2022-11-23T01:06:26;24.17;;;5.03;;
42244;SDS011;27912;51.828;5.688;2022-11-23T01:08:57;14.38;;;4.10;;
42244;SDS011;27912;51.828;5.688;2022-11-23T01:11:29;15.30;;;4.85;;
42244;SDS011;27912;51.828;5.688;2022-11-23T01:13:56;14.35;;;4.53;;
42244;SDS011;27912;51.828;5.688;2022-11-23T01:16:23;15.00;;;4.50;;
42244;SDS011;27912;51.828;5.688;2022-11-23T01:19:01;15.50;;;4.25;;
42244;SDS011;27912;51.828;5.688;2022-11-23T01:21:29;15.05;;;3.58;;
42244;SDS011;27912;51.828;5.688;2022-11-23T01:23:56;9.55;;;3.92;;
42244;SDS011;27912;51.828;5.688;2022-11-23T01:26:21;11.55;;;3.45;;
42244;SDS011;27912;51.828;5.688;2022-11-23T01:28:47;12.57;;;3.88;;
42244;SDS011;27912;51.828;5.688;2022-11-23T01:31:14;13.30;;;3.17;;
42244;SDS011;27912;51.828;5.688;2022-11-23T01:33:42;10.68;;;3.72;;
42244;SDS011;27912;51.828;5.688;2022-11-23T01:36:20;17.40;;;4.18;;
42244;SDS011;27912;51.828;5.688;2022-11-23T01:38:48;9.88;;;2.92;;
42244;SDS011;27912;51.828;5.688;2022-11-23T01:41:15;14.75;;;3.30;;
42244;SDS011;27912;51.828;5.688;2022-11-23T01:43:46;13.27;;;2.83;;
42244;SDS011;27912;51.828;5.688;2022-11-23T01:46:12;17.40;;;3.72;;
42244;SDS011;27912;51.828;5.688;2022-11-23T01:48:39;11.32;;;2.75;;
42244;SDS011;27912;51.828;5.688;2022-11-23T01:51:17;11.60;;;2.70;;
42244;SDS011;27912;51.828;5.688;2022-11-23T01:53:46;13.10;;;2.75;;
42244;SDS011;27912;51.828;5.688;2022-11-23T01:56:18;15.93;;;2.83;;
42244;SDS011;27912;51.828;5.688;2022-11-23T01:58:53;13.48;;;2.80;;
42244;SDS011;27912;51.828;5.688;2022-11-23T02:01:22;12.60;;;2.20;;
42244;SDS011;27912;51.828;5.688;2022-11-23T02:03:48;12.55;;;2.70;;
42244;SDS011;27912;51.828;5.688;2022-11-23T02:06:16;17.05;;;2.38;;
42244;SDS011;27912;51.828;5.688;2022-11-23T02:08:43;12.52;;;2.47;;
42244;SDS011;27912;51.828;5.688;2022-11-23T02:11:09;11.88;;;2.95;;
42244;SDS011;27912;51.828;5.688;2022-11-23T02:13:37;12.60;;;2.78;;
42244;SDS011;27912;51.828;5.688;2022-11-23T02:16:03;11.57;;;2.00;;
42244;SDS011;27912;51.828;5.688;2022-11-23T02:18:30;13.68;;;2.30;;
42244;SDS011;27912;51.828;5.688;2022-11-23T02:20:57;10.32;;;2.45;;
42244;SDS011;27912;51.828;5.688;2022-11-23T02:23:46;10.40;;;2.08;;
42244;SDS011;27912;51.828;5.688;2022-11-23T02:26:21;10.00;;;2.20;;
42244;SDS011;27912;51.828;5.688;2022-11-23T02:29:03;11.35;;;2.30;;
42244;SDS011;27912;51.828;5.688;2022-11-23T02:31:32;12.73;;;3.03;;
42244;SDS011;27912;51.828;5.688;2022-11-23T02:33:58;12.38;;;2.58;;
42244;SDS011;27912;51.828;5.688;2022-11-23T02:36:30;14.95;;;2.70;;
42244;SDS011;27912;51.828;5.688;2022-11-23T02:39:08;15.07;;;2.25;;
42244;SDS011;27912;51.828;5.688;2022-11-23T02:41:37;12.27;;;2.15;;
42244;SDS011;27912;51.828;5.688;2022-11-23T02:47:11;11.45;;;1.70;;
42244;SDS011;27912;51.828;5.688;2022-11-23T02:49:38;10.15;;;1.48;;
42244;SDS011;27912;51.828;5.688;2022-11-23T02:52:09;11.02;;;1.65;;
42244;SDS011;27912;51.828;5.688;2022-11-23T02:54:35;7.60;;;1.58;;
42244;SDS011;27912;51.828;5.688;2022-11-23T02:57:01;14.27;;;1.92;;
42244;SDS011;27912;51.828;5.688;2022-11-23T02:59:27;9.25;;;1.27;;
42244;SDS011;27912;51.828;5.688;2022-11-23T03:01:56;11.32;;;1.42;;
42244;SDS011;27912;51.828;5.688;2022-11-23T03:04:22;6.20;;;0.88;;
42244;SDS011;27912;51.828;5.688;2022-11-23T03:06:48;10.20;;;0.90;;
42244;SDS011;27912;51.828;5.688;2022-11-23T03:09:14;12.90;;;1.92;;
42244;SDS011;27912;51.828;5.688;2022-11-23T03:11:39;9.30;;;1.20;;
42244;SDS011;27912;51.828;5.688;2022-11-23T03:14:05;9.73;;;1.08;;
42244;SDS011;27912;51.828;5.688;2022-11-23T03:16:31;10.80;;;1.40;;
42244;SDS011;27912;51.828;5.688;2022-11-23T03:18:58;10.98;;;1.05;;
42244;SDS011;27912;51.828;5.688;2022-11-23T03:21:23;7.28;;;1.23;;
42244;SDS011;27912;51.828;5.688;2022-11-23T03:23:49;6.82;;;1.35;;
42244;SDS011;27912;51.828;5.688;2022-11-23T03:26:15;8.95;;;1.50;;
42244;SDS011;27912;51.828;5.688;2022-11-23T03:28:40;17.58;;;1.45;;
42244;SDS011;27912;51.828;5.688;2022-11-23T03:31:06;12.40;;;2.15;;
42244;SDS011;27912;51.828;5.688;2022-11-23T03:33:32;11.40;;;1.30;;
42244;SDS011;27912;51.828;5.688;2022-11-23T03:35:58;14.00;;;2.67;;
42244;SDS011;27912;51.828;5.688;2022-11-23T03:38:24;14.85;;;1.10;;
42244;SDS011;27912;51.828;5.688;2022-11-23T03:40:50;8.63;;;1.08;;
42244;SDS011;27912;51.828;5.688;2022-11-23T03:43:15;7.70;;;1.10;;
42244;SDS011;27912;51.828;5.688;2022-11-23T03:45:41;11.82;;;1.75;;
42244;SDS011;27912;51.828;5.688;2022-11-23T03:48:07;11.25;;;1.45;;
42244;SDS011;27912;51.828;5.688;2022-11-23T03:50:33;8.60;;;1.23;;
42244;SDS011;27912;51.828;5.688;2022-11-23T03:52:59;8.43;;;1.30;;
42244;SDS011;27912;51.828;5.688;2022-11-23T03:55:25;12.95;;;1.75;;
42244;SDS011;27912;51.828;5.688;2022-11-23T03:57:51;12.77;;;1.38;;
42244;SDS011;27912;51.828;5.688;2022-11-23T04:02:50;15.60;;;1.35;;
42244;SDS011;27912;51.828;5.688;2022-11-23T04:05:16;14.80;;;2.05;;
42244;SDS011;27912;51.828;5.688;2022-11-23T04:07:41;12.50;;;1.42;;
42244;SDS011;27912;51.828;5.688;2022-11-23T04:10:07;9.05;;;1.73;;
42244;SDS011;27912;51.828;5.688;2022-11-23T04:12:34;12.60;;;1.10;;
42244;SDS011;27912;51.828;5.688;2022-11-23T04:14:59;15.43;;;1.75;;
42244;SDS011;27912;51.828;5.688;2022-11-23T04:17:25;9.32;;;1.90;;
42244;SDS011;27912;51.828;5.688;2022-11-23T04:19:51;9.32;;;1.45;;
42244;SDS011;27912;51.828;5.688;2022-11-23T04:22:17;11.85;;;1.70;;
42244;SDS011;27912;51.828;5.688;2022-11-23T04:24:42;10.10;;;1.10;;
42244;SDS011;27912;51.828;5.688;2022-11-23T04:27:08;8.90;;;1.00;;
42244;SDS011;27912;51.828;5.688;2022-11-23T04:29:33;17.27;;;1.33;;
42244;SDS011;27912;51.828;5.688;2022-11-23T04:31:59;13.70;;;2.13;;
42244;SDS011;27912;51.828;5.688;2022-11-23T04:34:27;11.63;;;1.33;;
42244;SDS011;27912;51.828;5.688;2022-11-23T04:36:53;11.15;;;1.40;;
42244;SDS011;27912;51.828;5.688;2022-11-23T04:39:19;14.45;;;1.30;;
42244;SDS011;27912;51.828;5.688;2022-11-23T04:41:44;7.35;;;1.20;;
42244;SDS011;27912;51.828;5.688;2022-11-23T04:44:10;9.40;;;1.35;;
42244;SDS011;27912;51.828;5.688;2022-11-23T04:46:35;11.60;;;0.88;;
42244;SDS011;27912;51.828;5.688;2022-11-23T04:49:01;10.70;;;1.48;;
42244;SDS011;27912;51.828;5.688;2022-11-23T04:51:27;11.85;;;1.40;;
42244;SDS011;27912;51.828;5.688;2022-11-23T04:53:52;11.95;;;1.17;;
42244;SDS011;27912;51.828;5.688;2022-11-23T04:56:18;13.45;;;1.20;;
42244;SDS011;27912;51.828;5.688;2022-11-23T04:58:44;12.15;;;1.30;;
42244;SDS011;27912;51.828;5.688;2022-11-23T05:01:09;9.50;;;1.13;;
42244;SDS011;27912;51.828;5.688;2022-11-23T05:03:35;6.18;;;0.85;;
42244;SDS011;27912;51.828;5.688;2022-11-23T05:06:01;11.05;;;1.00;;
42244;SDS011;27912;51.828;5.688;2022-11-23T05:08:28;13.52;;;1.65;;
42244;SDS011;27912;51.828;5.688;2022-11-23T05:10:54;9.88;;;1.10;;
42244;SDS011;27912;51.828;5.688;2022-11-23T05:13:20;11.55;;;1.27;;
42244;SDS011;27912;51.828;5.688;2022-11-23T05:15:46;12.63;;;1.80;;
42244;SDS011;27912;51.828;5.688;2022-11-23T05:18:12;15.40;;;1.45;;
42244;SDS011;27912;51.828;5.688;2022-11-23T05:20:38;14.85;;;1.58;;
42244;SDS011;27912;51.828;5.688;2022-11-23T05:23:04;11.65;;;1.48;;
42244;SDS011;27912;51.828;5.688;2022-11-23T05:25:30;9.68;;;0.82;;
42244;SDS011;27912;51.828;5.688;2022-11-23T05:27:56;12.73;;;1.05;;
42244;SDS011;27912;51.828;5.688;2022-11-23T05:30:22;11.63;;;1.23;;
42244;SDS011;27912;51.828;5.688;2022-11-23T05:32:48;11.85;;;1.65;;
42244;SDS011;27912;51.828;5.688;2022-11-23T05:35:14;11.82;;;1.10;;
42244;SDS011;27912;51.828;5.688;2022-11-23T05:37:40;14.30;;;0.90;;
42244;SDS011;27912;51.828;5.688;2022-11-23T05:40:06;14.63;;;1.13;;
42244;SDS011;27912;51.828;5.688;2022-11-23T05:42:35;13.63;;;1.85;;
42244;SDS011;27912;51.828;5.688;2022-11-23T05:45:01;15.80;;;1.50;;
42244;SDS011;27912;51.828;5.688;2022-11-23T05:47:27;16.63;;;1.58;;
42244;SDS011;27912;51.828;5.688;2022-11-23T05:49:53;8.65;;;0.90;;
42244;SDS011;27912;51.828;5.688;2022-11-23T05:52:19;14.18;;;1.15;;
42244;SDS011;27912;51.828;5.688;2022-11-23T05:54:44;8.82;;;0.90;;
42244;SDS011;27912;51.828;5.688;2022-11-23T05:57:10;13.15;;;2.03;;
42244;SDS011;27912;51.828;5.688;2022-11-23T05:59:36;15.75;;;1.20;;
42244;SDS011;27912;51.828;5.688;2022-11-23T06:02:02;11.73;;;1.25;;
42244;SDS011;27912;51.828;5.688;2022-11-23T06:04:27;15.95;;;2.22;;
42244;SDS011;27912;51.828;5.688;2022-11-23T06:06:53;9.15;;;1.10;;
42244;SDS011;27912;51.828;5.688;2022-11-23T06:09:21;12.88;;;1.13;;
42244;SDS011;27912;51.828;5.688;2022-11-23T06:11:46;10.05;;;1.40;;
42244;SDS011;27912;51.828;5.688;2022-11-23T06:14:12;9.85;;;1.40;;
42244;SDS011;27912;51.828;5.688;2022-11-23T06:16:38;9.95;;;0.95;;
42244;SDS011;27912;51.828;5.688;2022-11-23T06:19:04;13.20;;;1.25;;
42244;SDS011;27912;51.828;5.688;2022-11-23T06:21:30;11.07;;;1.27;;
42244;SDS011;27912;51.828;5.688;2022-11-23T06:23:56;12.68;;;1.13;;
42244;SDS011;27912;51.828;5.688;2022-11-23T06:26:22;13.15;;;1.23;;
42244;SDS011;27912;51.828;5.688;2022-11-23T06:28:47;13.63;;;1.15;;
42244;SDS011;27912;51.828;5.688;2022-11-23T06:31:16;15.95;;;1.90;;
42244;SDS011;27912;51.828;5.688;2022-11-23T06:33:44;12.65;;;1.75;;
42244;SDS011;27912;51.828;5.688;2022-11-23T06:36:10;11.15;;;2.30;;
42244;SDS011;27912;51.828;5.688;2022-11-23T06:38:36;14.38;;;2.63;;
42244;SDS011;27912;51.828;5.688;2022-11-23T06:41:02;20.40;;;4.18;;
42244;SDS011;27912;51.828;5.688;2022-11-23T06:43:28;13.98;;;2.80;;
42244;SDS011;27912;51.828;5.688;2022-11-23T06:45:54;13.65;;;2.35;;
42244;SDS011;27912;51.828;5.688;2022-11-23T06:48:20;15.13;;;2.30;;
42244;SDS011;27912;51.828;5.688;2022-11-23T06:50:47;13.35;;;2.47;;
42244;SDS011;27912;51.828;5.688;2022-11-23T06:53:12;14.88;;;2.50;;
42244;SDS011;27912;51.828;5.688;2022-11-23T06:55:39;15.02;;;2.58;;
42244;SDS011;27912;51.828;5.688;2022-11-23T06:58:04;14.77;;;2.08;;
42244;SDS011;27912;51.828;5.688;2022-11-23T07:00:31;15.82;;;2.00;;
42244;SDS011;27912;51.828;5.688;2022-11-23T07:02:57;14.30;;;1.88;;
42244;SDS011;27912;51.828;5.688;2022-11-23T07:05:24;14.50;;;1.55;;
42244;SDS011;27912;51.828;5.688;2022-11-23T07:07:53;15.85;;;1.40;;
42244;SDS011;27912;51.828;5.688;2022-11-23T07:10:19;9.13;;;0.98;;
42244;SDS011;27912;51.828;5.688;2022-11-23T07:12:45;13.35;;;1.20;;
42244;SDS011;27912;51.828;5.688;2022-11-23T07:15:11;15.02;;;1.48;;
42244;SDS011;27912;51.828;5.688;2022-11-23T07:17:40;12.77;;;0.98;;
42244;SDS011;27912;51.828;5.688;2022-11-23T07:20:09;14.30;;;1.95;;
42244;SDS011;27912;51.828;5.688;2022-11-23T07:22:36;17.40;;;2.10;;
42244;SDS011;27912;51.828;5.688;2022-11-23T07:25:02;24.05;;;1.40;;
42244;SDS011;27912;51.828;5.688;2022-11-23T07:27:29;16.55;;;1.35;;
42244;SDS011;27912;51.828;5.688;2022-11-23T07:29:55;10.65;;;1.17;;
42244;SDS011;27912;51.828;5.688;2022-11-23T07:32:21;20.35;;;1.55;;
42244;SDS011;27912;51.828;5.688;2022-11-23T07:34:47;15.45;;;1.20;;
42244;SDS011;27912;51.828;5.688;2022-11-23T07:37:12;10.32;;;1.30;;
42244;SDS011;27912;51.828;5.688;2022-11-23T07:39:38;14.77;;;1.40;;
42244;SDS011;27912;51.828;5.688;2022-11-23T07:42:03;14.68;;;1.10;;
42244;SDS011;27912;51.828;5.688;2022-11-23T07:44:29;10.88;;;0.90;;
42244;SDS011;27912;51.828;5.688;2022-11-23T07:46:55;14.75;;;1.92;;
42244;SDS011;27912;51.828;5.688;2022-11-23T07:49:21;15.52;;;0.90;;
42244;SDS011;27912;51.828;5.688;2022-11-23T07:51:46;15.23;;;1.10;;
42244;SDS011;27912;51.828;5.688;2022-11-23T07:54:15;16.65;;;1.42;;
42244;SDS011;27912;51.828;5.688;2022-11-23T07:56:41;10.95;;;1.05;;
42244;SDS011;27912;51.828;5.688;2022-11-23T07:59:07;14.38;;;0.60;;
42244;SDS011;27912;51.828;5.688;2022-11-23T08:01:33;13.80;;;1.02;;
42244;SDS011;27912;51.828;5.688;2022-11-23T08:03:58;13.20;;;1.02;;
42244;SDS011;27912;51.828;5.688;2022-11-23T08:06:24;12.55;;;1.13;;
42244;SDS011;27912;51.828;5.688;2022-11-23T08:08:49;9.98;;;0.93;;
42244;SDS011;27912;51.828;5.688;2022-11-23T08:11:15;10.32;;;0.70;;
42244;SDS011;27912;51.828;5.688;2022-11-23T08:13:42;14.75;;;1.83;;
42244;SDS011;27912;51.828;5.688;2022-11-23T08:16:08;12.73;;;1.00;;
42244;SDS011;27912;51.828;5.688;2022-11-23T08:18:34;11.07;;;0.77;;
42244;SDS011;27912;51.828;5.688;2022-11-23T08:21:01;12.88;;;0.88;;
42244;SDS011;27912;51.828;5.688;2022-11-23T08:23:26;11.95;;;0.90;;
42244;SDS011;27912;51.828;5.688;2022-11-23T08:25:52;12.05;;;0.90;;
42244;SDS011;27912;51.828;5.688;2022-11-23T08:28:18;8.90;;;0.88;;
42244;SDS011;27912;51.828;5.688;2022-11-23T08:30:44;18.33;;;1.40;;
42244;SDS011;27912;51.828;5.688;2022-11-23T08:33:10;14.18;;;1.17;;
42244;SDS011;27912;51.828;5.688;2022-11-23T08:35:38;13.40;;;0.98;;
42244;SDS011;27912;51.828;5.688;2022-11-23T08:38:04;7.70;;;1.10;;
42244;SDS011;27912;51.828;5.688;2022-11-23T08:40:31;7.47;;;1.38;;
42244;SDS011;27912;51.828;5.688;2022-11-23T08:42:57;12.82;;;1.17;;
42244;SDS011;27912;51.828;5.688;2022-11-23T08:45:23;16.38;;;1.23;;
42244;SDS011;27912;51.828;5.688;2022-11-23T08:47:49;13.15;;;1.10;;
42244;SDS011;27912;51.828;5.688;2022-11-23T08:50:16;11.93;;;1.20;;
42244;SDS011;27912;51.828;5.688;2022-11-23T08:52:42;13.88;;;0.98;;
42244;SDS011;27912;51.828;5.688;2022-11-23T08:55:08;10.60;;;0.88;;
42244;SDS011;27912;51.828;5.688;2022-11-23T08:57:34;11.00;;;0.95;;
42244;SDS011;27912;51.828;5.688;2022-11-23T09:00:00;17.38;;;1.23;;
42244;SDS011;27912;51.828;5.688;2022-11-23T09:02:25;11.93;;;1.52;;
42244;SDS011;27912;51.828;5.688;2022-11-23T09:04:51;9.13;;;0.80;;
42244;SDS011;27912;51.828;5.688;2022-11-23T09:07:17;6.35;;;0.70;;
42244;SDS011;27912;51.828;5.688;2022-11-23T09:09:42;12.10;;;1.15;;
42244;SDS011;27912;51.828;5.688;2022-11-23T09:12:08;13.38;;;1.40;;
42244;SDS011;27912;51.828;5.688;2022-11-23T09:14:34;13.27;;;1.38;;
42244;SDS011;27912;51.828;5.688;2022-11-23T09:17:00;9.57;;;1.35;;
42244;SDS011;27912;51.828;5.688;2022-11-23T09:19:26;12.00;;;1.15;;
42244;SDS011;27912;51.828;5.688;2022-11-23T09:21:52;11.90;;;1.10;;
42244;SDS011;27912;51.828;5.688;2022-11-23T09:24:18;8.88;;;0.93;;
42244;SDS011;27912;51.828;5.688;2022-11-23T09:26:44;7.28;;;1.33;;
42244;SDS011;27912;51.828;5.688;2022-11-23T09:29:09;9.32;;;1.13;;
42244;SDS011;27912;51.828;5.688;2022-11-23T09:31:35;7.38;;;1.35;;
42244;SDS011;27912;51.828;5.688;2022-11-23T09:34:01;10.10;;;1.13;;
42244;SDS011;27912;51.828;5.688;2022-11-23T09:36:27;15.43;;;1.35;;
42244;SDS011;27912;51.828;5.688;2022-11-23T09:38:52;14.20;;;1.08;;
42244;SDS011;27912;51.828;5.688;2022-11-23T09:50:07;19.98;;;1.10;;
42244;SDS011;27912;51.828;5.688;2022-11-23T09:52:39;9.30;;;1.13;;
42244;SDS011;27912;51.828;5.688;2022-11-23T09:55:17;11.70;;;1.25;;
42244;SDS011;27912;51.828;5.688;2022-11-23T09:57:47;12.95;;;0.95;;
42244;SDS011;27912;51.828;5.688;2022-11-23T10:00:19;12.23;;;0.85;;
42244;SDS011;27912;51.828;5.688;2022-11-23T10:02:48;15.77;;;1.15;;
42244;SDS011;27912;51.828;5.688;2022-11-23T10:05:18;8.02;;;1.08;;
42244;SDS011;27912;51.828;5.688;2022-11-23T10:10:38;8.00;;;0.85;;
42244;SDS011;27912;51.828;5.688;2022-11-23T10:13:10;11.50;;;1.13;;
42244;SDS011;27912;51.828;5.688;2022-11-23T10:16:04;11.77;;;0.70;;
42244;SDS011;27912;51.828;5.688;2022-11-23T10:21:25;12.65;;;2.30;;
42244;SDS011;27912;51.828;5.688;2022-11-23T10:24:12;8.85;;;1.10;;
42244;SDS011;27912;51.828;5.688;2022-11-23T10:26:49;11.95;;;0.75;;
42244;SDS011;27912;51.828;5.688;2022-11-23T10:29:30;7.07;;;0.75;;
42244;SDS011;27912;51.828;5.688;2022-11-23T10:31:59;9.68;;;1.00;;
42244;SDS011;27912;51.828;5.688;2022-11-23T10:37:16;8.05;;;0.75;;
42244;SDS011;27912;51.828;5.688;2022-11-23T10:39:42;8.13;;;0.88;;
42244;SDS011;27912;51.828;5.688;2022-11-23T10:42:30;12.25;;;1.15;;
42244;SDS011;27912;51.828;5.688;2022-11-23T10:45:06;8.60;;;0.68;;
42244;SDS011;27912;51.828;5.688;2022-11-23T10:47:53;9.57;;;0.80;;
42244;SDS011;27912;51.828;5.688;2022-11-23T10:50:29;7.65;;;0.90;;
42244;SDS011;27912;51.828;5.688;2022-11-23T10:55:30;16.02;;;1.65;;
42244;SDS011;27912;51.828;5.688;2022-11-23T10:57:58;7.30;;;1.15;;
42244;SDS011;27912;51.828;5.688;2022-11-23T11:00:25;12.77;;;0.70;;
42244;SDS011;27912;51.828;5.688;2022-11-23T11:02:53;6.88;;;0.68;;
42244;SDS011;27912;51.828;5.688;2022-11-23T11:08:02;9.10;;;0.88;;
42244;SDS011;27912;51.828;5.688;2022-11-23T11:10:47;8.73;;;0.60;;
42244;SDS011;27912;51.828;5.688;2022-11-23T11:16:07;9.02;;;0.90;;
42244;SDS011;27912;51.828;5.688;2022-11-23T11:18:46;12.00;;;0.90;;
42244;SDS011;27912;51.828;5.688;2022-11-23T11:21:23;7.90;;;0.82;;
42244;SDS011;27912;51.828;5.688;2022-11-23T11:23:58;9.10;;;0.80;;
42244;SDS011;27912;51.828;5.688;2022-11-23T11:26:26;10.10;;;0.77;;
42244;SDS011;27912;51.828;5.688;2022-11-23T11:28:55;9.10;;;0.50;;
42244;SDS011;27912;51.828;5.688;2022-11-23T11:31:29;4.35;;;0.50;;
42244;SDS011;27912;51.828;5.688;2022-11-23T11:36:51;6.75;;;0.90;;
42244;SDS011;27912;51.828;5.688;2022-11-23T11:45:25;11.25;;;1.17;;
42244;SDS011;27912;51.828;5.688;2022-11-23T11:47:56;13.35;;;0.85;;
42244;SDS011;27912;51.828;5.688;2022-11-23T11:50:41;7.55;;;0.60;;
42244;SDS011;27912;51.828;5.688;2022-11-23T11:53:14;5.63;;;0.47;;
42244;SDS011;27912;51.828;5.688;2022-11-23T11:58:35;4.72;;;0.40;;
42244;SDS011;27912;51.828;5.688;2022-11-23T12:01:26;4.88;;;0.43;;
42244;SDS011;27912;51.828;5.688;2022-11-23T12:04:11;7.20;;;0.95;;
42244;SDS011;27912;51.828;5.688;2022-11-23T12:06:42;10.30;;;0.60;;
42244;SDS011;27912;51.828;5.688;2022-11-23T12:09:18;6.95;;;0.60;;
42244;SDS011;27912;51.828;5.688;2022-11-23T12:11:50;6.78;;;0.55;;
42244;SDS011;27912;51.828;5.688;2022-11-23T12:14:17;9.60;;;0.63;;
42244;SDS011;27912;51.828;5.688;2022-11-23T12:22:34;6.15;;;0.40;;
42244;SDS011;27912;51.828;5.688;2022-11-23T12:41:53;10.17;;;0.97;;
42244;SDS011;27912;51.828;5.688;2022-11-23T12:47:04;5.38;;;0.40;;
42244;SDS011;27912;51.828;5.688;2022-11-23T12:50:13;7.13;;;1.02;;
42244;SDS011;27912;51.828;5.688;2022-11-23T12:52:57;6.40;;;0.52;;
42244;SDS011;27912;51.828;5.688;2022-11-23T12:58:30;5.35;;;0.45;;
42244;SDS011;27912;51.828;5.688;2022-11-23T13:01:18;5.15;;;0.80;;
42244;SDS011;27912;51.828;5.688;2022-11-23T13:04:04;3.53;;;0.47;;
42244;SDS011;27912;51.828;5.688;2022-11-23T13:09:56;6.35;;;0.80;;
42244;SDS011;27912;51.828;5.688;2022-11-23T13:15:34;6.75;;;0.50;;
42244;SDS011;27912;51.828;5.688;2022-11-23T13:23:25;6.13;;;0.45;;
42244;SDS011;27912;51.828;5.688;2022-11-23T13:28:39;3.88;;;0.30;;
42244;SDS011;27912;51.828;5.688;2022-11-23T13:33:51;8.23;;;0.82;;
42244;SDS011;27912;51.828;5.688;2022-11-23T13:42:11;6.53;;;0.55;;
42244;SDS011;27912;51.828;5.688;2022-11-23T13:44:37;3.67;;;0.40;;
42244;SDS011;27912;51.828;5.688;2022-11-23T13:47:17;2.38;;;0.30;;
42244;SDS011;27912;51.828;5.688;2022-11-23T13:49:50;5.55;;;0.40;;
42244;SDS011;27912;51.828;5.688;2022-11-23T13:52:31;6.32;;;0.30;;
42244;SDS011;27912;51.828;5.688;2022-11-23T13:57:25;3.15;;;0.32;;
42244;SDS011;27912;51.828;5.688;2022-11-23T13:59:51;3.63;;;0.30;;
42244;SDS011;27912;51.828;5.688;2022-11-23T14:02:27;8.77;;;1.02;;
42244;SDS011;27912;51.828;5.688;2022-11-23T14:07:54;4.55;;;0.52;;
42244;SDS011;27912;51.828;5.688;2022-11-23T14:10:22;6.25;;;0.40;;
42244;SDS011;27912;51.828;5.688;2022-11-23T14:15:28;3.05;;;0.30;;
42244;SDS011;27912;51.828;5.688;2022-11-23T14:18:20;3.60;;;0.30;;
42244;SDS011;27912;51.828;5.688;2022-11-23T14:41:33;4.43;;;0.45;;
42244;SDS011;27912;51.828;5.688;2022-11-23T14:44:02;6.07;;;0.50;;
42244;SDS011;27912;51.828;5.688;2022-11-23T14:46:30;5.35;;;0.43;;
42244;SDS011;27912;51.828;5.688;2022-11-23T14:49:16;3.88;;;0.40;;
42244;SDS011;27912;51.828;5.688;2022-11-23T14:51:42;5.05;;;0.40;;
42244;SDS011;27912;51.828;5.688;2022-11-23T14:54:09;7.15;;;0.57;;
42244;SDS011;27912;51.828;5.688;2022-11-23T14:56:36;4.20;;;0.40;;
42244;SDS011;27912;51.828;5.688;2022-11-23T14:59:08;6.38;;;0.50;;
42244;SDS011;27912;51.828;5.688;2022-11-23T15:01:44;4.47;;;0.30;;
42244;SDS011;27912;51.828;5.688;2022-11-23T15:04:23;3.15;;;0.30;;
42244;SDS011;27912;51.828;5.688;2022-11-23T15:06:52;5.53;;;0.32;;
42244;SDS011;27912;51.828;5.688;2022-11-23T15:12:20;5.03;;;0.50;;
42244;SDS011;27912;51.828;5.688;2022-11-23T15:14:47;4.53;;;0.45;;
42244;SDS011;27912;51.828;5.688;2022-11-23T15:17:15;4.70;;;0.40;;
42244;SDS011;27912;51.828;5.688;2022-11-23T15:19:42;6.22;;;0.70;;
42244;SDS011;27912;51.828;5.688;2022-11-23T15:22:16;3.35;;;0.60;;
42244;SDS011;27912;51.828;5.688;2022-11-23T15:24:44;6.07;;;0.70;;
42244;SDS011;27912;51.828;5.688;2022-11-23T15:27:13;4.22;;;0.52;;
42244;SDS011;27912;51.828;5.688;2022-11-23T15:29:49;6.85;;;0.50;;
42244;SDS011;27912;51.828;5.688;2022-11-23T15:32:35;4.63;;;0.50;;
42244;SDS011;27912;51.828;5.688;2022-11-23T15:35:05;3.30;;;0.50;;
42244;SDS011;27912;51.828;5.688;2022-11-23T15:37:44;2.67;;;0.60;;
42244;SDS011;27912;51.828;5.688;2022-11-23T15:40:13;4.90;;;0.50;;
42244;SDS011;27912;51.828;5.688;2022-11-23T15:42:40;3.20;;;0.40;;
42244;SDS011;27912;51.828;5.688;2022-11-23T15:48:02;5.40;;;0.55;;
42244;SDS011;27912;51.828;5.688;2022-11-23T15:51:04;4.95;;;0.57;;
42244;SDS011;27912;51.828;5.688;2022-11-23T15:53:53;7.45;;;0.95;;
42244;SDS011;27912;51.828;5.688;2022-11-23T15:58:55;6.20;;;0.70;;
42244;SDS011;27912;51.828;5.688;2022-11-23T16:01:23;5.93;;;0.70;;
42244;SDS011;27912;51.828;5.688;2022-11-23T16:06:36;6.10;;;1.00;;
42244;SDS011;27912;51.828;5.688;2022-11-23T16:09:50;2.85;;;0.80;;
42244;SDS011;27912;51.828;5.688;2022-11-23T16:12:19;5.47;;;0.77;;
42244;SDS011;27912;51.828;5.688;2022-11-23T16:14:46;4.35;;;0.98;;
42244;SDS011;27912;51.828;5.688;2022-11-23T16:19:54;6.13;;;0.82;;
42244;SDS011;27912;51.828;5.688;2022-11-23T16:22:32;2.35;;;0.75;;
42244;SDS011;27912;51.828;5.688;2022-11-23T16:25:08;4.45;;;0.70;;
42244;SDS011;27912;51.828;5.688;2022-11-23T16:27:40;4.65;;;0.90;;
42244;SDS011;27912;51.828;5.688;2022-11-23T16:30:20;3.58;;;0.77;;
42244;SDS011;27912;51.828;5.688;2022-11-23T16:32:48;5.05;;;0.85;;
42244;SDS011;27912;51.828;5.688;2022-11-23T16:35:17;5.45;;;0.93;;
42244;SDS011;27912;51.828;5.688;2022-11-23T16:37:44;5.38;;;1.00;;
42244;SDS011;27912;51.828;5.688;2022-11-23T16:40:11;4.90;;;0.77;;
42244;SDS011;27912;51.828;5.688;2022-11-23T16:42:37;6.32;;;0.85;;
42244;SDS011;27912;51.828;5.688;2022-11-23T16:45:08;4.20;;;0.60;;
42244;SDS011;27912;51.828;5.688;2022-11-23T16:47:34;4.05;;;0.70;;
42244;SDS011;27912;51.828;5.688;2022-11-23T16:50:19;5.53;;;0.85;;
42244;SDS011;27912;51.828;5.688;2022-11-23T16:52:45;4.07;;;0.60;;
42244;SDS011;27912;51.828;5.688;2022-11-23T16:55:11;3.00;;;0.80;;
42244;SDS011;27912;51.828;5.688;2022-11-23T16:57:37;11.23;;;0.90;;
42244;SDS011;27912;51.828;5.688;2022-11-23T17:00:04;2.97;;;0.60;;
42244;SDS011;27912;51.828;5.688;2022-11-23T17:02:51;5.88;;;0.80;;
42244;SDS011;27912;51.828;5.688;2022-11-23T17:05:17;4.63;;;0.90;;
42244;SDS011;27912;51.828;5.688;2022-11-23T17:07:44;3.13;;;0.60;;